Time;durP1;ratioP1;P1;durP2;ratioP2;P2;SDS_P1;SDS_P2;PMS_P1;PMS_P2;Temp;Humidity;BMP_temperature;BMP_pressure;BME280_temperature;BME280_humidity;BME280_pressure;Samples;Min_cycle;Max_cycle;Signal;HPM_P1;HPM_P2
2022/07/08 00:01:14;;;;;;;9.15;3.80;;;11.30;99.90;;;;;;5018005;28;20053;-89
2022/07/08 00:03:40;;;;;;;9.55;4.60;;;11.30;99.90;;;;;;5009947;28;20099;-88
2022/07/08 00:06:06;;;;;;;8.68;4.78;;;11.30;99.90;;;;;;5025352;28;20021;-89
2022/07/08 00:08:33;;;;;;;10.07;4.57;;;11.20;99.90;;;;;;5011857;28;20164;-88
2022/07/08 00:10:58;;;;;;;9.70;4.72;;;11.20;99.90;;;;;;5021219;28;20123;-88
2022/07/08 00:13:24;;;;;;;11.68;4.80;;;11.20;99.90;;;;;;5016982;28;20121;-89
2022/07/08 00:15:50;;;;;;;11.27;4.95;;;11.10;99.90;;;;;;5025900;28;20055;-89
2022/07/08 00:18:15;;;;;;;7.13;4.47;;;11.10;99.90;;;;;;5033509;28;20029;-89
2022/07/08 00:20:41;;;;;;;11.07;5.13;;;11.00;99.90;;;;;;5031515;28;20030;-89
2022/07/08 00:23:07;;;;;;;9.45;4.13;;;11.00;99.90;;;;;;5025973;28;20021;-89
2022/07/08 00:25:32;;;;;;;16.73;4.47;;;10.90;99.90;;;;;;5014275;28;20363;-89
2022/07/08 00:27:58;;;;;;;11.70;4.28;;;10.90;99.90;;;;;;5015480;28;20135;-89
2022/07/08 00:30:24;;;;;;;8.63;4.35;;;10.80;99.90;;;;;;5022520;28;20064;-89
2022/07/08 00:32:52;;;;;;;6.30;4.30;;;10.80;99.90;;;;;;5018370;28;20030;-89
2022/07/08 00:35:18;;;;;;;11.10;4.55;;;10.70;99.90;;;;;;5035152;28;20075;-89
2022/07/08 00:37:43;;;;;;;12.18;3.83;;;10.70;99.90;;;;;;5035463;28;20021;-88
2022/07/08 00:40:11;;;;;;;15.73;4.60;;;10.70;99.90;;;;;;5035163;28;20025;-88
2022/07/08 00:42:37;;;;;;;13.05;4.93;;;10.70;99.90;;;;;;5025998;28;20033;-88
2022/07/08 00:45:03;;;;;;;13.77;5.50;;;10.60;99.90;;;;;;5016773;28;20025;-88
2022/07/08 00:47:29;;;;;;;10.25;4.70;;;10.60;99.90;;;;;;5018835;28;20113;-89
2022/07/08 00:49:55;;;;;;;9.50;3.97;;;10.60;99.90;;;;;;5032564;28;20117;-89
2022/07/08 00:52:21;;;;;;;10.10;4.18;;;10.60;99.90;;;;;;5029847;28;20366;-88
2022/07/08 00:54:48;;;;;;;8.40;4.22;;;10.60;99.90;;;;;;5030767;28;20105;-88
2022/07/08 00:57:15;;;;;;;16.80;5.13;;;10.70;99.90;;;;;;5030541;28;20096;-89
2022/07/08 00:59:41;;;;;;;13.50;4.75;;;10.70;99.90;;;;;;5010333;28;20555;-87
2022/07/08 01:02:07;;;;;;;9.45;4.20;;;10.70;99.90;;;;;;5018761;28;20033;-89
2022/07/08 01:04:34;;;;;;;14.05;4.43;;;10.70;99.90;;;;;;5016670;28;20034;-88
2022/07/08 01:07:00;;;;;;;10.65;4.47;;;10.70;99.90;;;;;;5008017;28;20064;-89
2022/07/08 01:09:27;;;;;;;14.82;4.35;;;10.70;99.90;;;;;;5021550;28;20026;-89
2022/07/08 01:11:52;;;;;;;12.20;4.15;;;10.70;99.90;;;;;;5022344;28;20595;-88
2022/07/08 01:14:18;;;;;;;10.40;4.28;;;10.70;99.90;;;;;;5025269;28;20042;-89
2022/07/08 01:16:44;;;;;;;12.18;4.60;;;10.80;99.90;;;;;;4998817;28;20022;-88
2022/07/08 01:19:10;;;;;;;14.75;4.75;;;10.80;99.90;;;;;;5032964;28;20148;-88
2022/07/08 01:21:36;;;;;;;6.88;4.05;;;10.80;99.90;;;;;;5017323;28;20033;-89
2022/07/08 01:24:02;;;;;;;9.35;5.13;;;10.80;99.90;;;;;;5024698;28;20026;-89
2022/07/08 01:26:28;;;;;;;12.45;5.20;;;10.80;99.90;;;;;;5021129;28;20563;-88
2022/07/08 01:28:55;;;;;;;6.57;4.22;;;10.80;99.90;;;;;;5027588;28;20033;-89
2022/07/08 01:31:20;;;;;;;16.90;5.03;;;10.80;99.90;;;;;;5026380;28;20374;-88
2022/07/08 01:33:46;;;;;;;12.77;4.45;;;10.80;99.90;;;;;;5005440;28;20045;-88
2022/07/08 01:36:12;;;;;;;12.95;4.63;;;10.90;99.90;;;;;;5013098;28;20057;-88
2022/07/08 01:38:37;;;;;;;12.35;4.57;;;10.80;99.90;;;;;;5025810;28;20040;-88
2022/07/08 01:41:03;;;;;;;8.32;3.65;;;10.80;99.90;;;;;;5023463;28;20076;-89
2022/07/08 01:43:29;;;;;;;10.70;4.65;;;10.80;99.90;;;;;;5028167;28;20079;-88
2022/07/08 01:45:55;;;;;;;9.98;3.97;;;10.80;99.90;;;;;;5015694;28;20049;-88
2022/07/08 01:48:20;;;;;;;9.75;3.92;;;10.90;99.90;;;;;;5025434;28;20034;-89
2022/07/08 01:50:46;;;;;;;6.88;3.45;;;10.90;99.90;;;;;;5011501;28;20086;-89
2022/07/08 01:53:12;;;;;;;11.55;3.63;;;10.90;99.90;;;;;;5005430;28;20030;-89
2022/07/08 01:55:38;;;;;;;6.03;3.35;;;10.90;99.90;;;;;;5014723;28;20129;-87
2022/07/08 01:58:04;;;;;;;7.72;3.45;;;10.90;99.90;;;;;;5002803;28;20030;-89
2022/07/08 02:00:29;;;;;;;7.45;3.60;;;10.90;99.90;;;;;;5021187;28;20050;-88
2022/07/08 02:02:55;;;;;;;11.88;3.63;;;10.90;99.90;;;;;;4996805;28;20026;-89
2022/07/08 02:05:21;;;;;;;8.43;2.60;;;10.90;99.90;;;;;;5026389;28;20037;-88
2022/07/08 02:07:46;;;;;;;10.93;3.15;;;10.90;99.90;;;;;;5027802;28;20057;-88
2022/07/08 02:10:12;;;;;;;11.15;3.40;;;11.00;99.90;;;;;;5019348;28;20052;-88
2022/07/08 02:12:38;;;;;;;11.38;3.17;;;11.00;99.90;;;;;;4999242;28;20492;-86
2022/07/08 02:15:06;;;;;;;9.63;3.20;;;11.00;99.90;;;;;;5025677;28;20064;-88
2022/07/08 02:17:37;;;;;;;5.00;2.72;;;11.10;99.90;;;;;;5018232;28;20109;-89
2022/07/08 02:20:08;;;;;;;5.40;3.40;;;11.10;99.90;;;;;;5024494;28;20033;-89
2022/07/08 02:22:34;;;;;;;12.45;2.55;;;11.10;99.90;;;;;;5028939;28;20096;-89
2022/07/08 02:25:01;;;;;;;5.15;2.97;;;11.10;99.90;;;;;;5011917;28;20030;-88
2022/07/08 02:27:26;;;;;;;6.38;2.97;;;11.20;99.90;;;;;;5023475;28;20120;-89
2022/07/08 02:29:52;;;;;;;5.63;2.58;;;11.20;99.90;;;;;;5022451;28;20663;-89
2022/07/08 02:32:17;;;;;;;6.60;2.45;;;11.20;99.90;;;;;;5011520;28;20030;-90
2022/07/08 02:34:44;;;;;;;10.63;2.75;;;11.30;99.90;;;;;;5026276;28;20022;-89
2022/07/08 02:37:10;;;;;;;10.35;2.72;;;11.30;99.90;;;;;;5012895;28;20093;-89
2022/07/08 02:39:35;;;;;;;10.13;3.70;;;11.40;99.90;;;;;;5023538;28;20063;-89
2022/07/08 02:42:01;;;;;;;7.10;2.60;;;11.40;99.90;;;;;;5031276;28;20410;-89
2022/07/08 02:44:27;;;;;;;8.63;2.72;;;11.40;99.90;;;;;;5021054;28;20034;-89
2022/07/08 02:46:53;;;;;;;6.05;2.15;;;11.40;99.90;;;;;;5011470;28;20084;-89
2022/07/08 02:49:18;;;;;;;7.38;2.83;;;11.40;99.90;;;;;;5037295;28;20060;-90
2022/07/08 02:51:44;;;;;;;6.72;2.60;;;11.40;99.90;;;;;;5031435;28;20025;-89
2022/07/08 02:54:09;;;;;;;4.25;2.55;;;11.40;99.90;;;;;;5038748;28;20028;-89
2022/07/08 02:56:35;;;;;;;8.95;2.40;;;11.40;99.90;;;;;;5025579;28;20181;-89
2022/07/08 02:59:02;;;;;;;6.78;2.45;;;11.40;99.90;;;;;;5031330;28;20533;-89
2022/07/08 03:01:27;;;;;;;3.65;2.03;;;11.40;99.90;;;;;;5011510;28;20036;-89
2022/07/08 03:03:53;;;;;;;10.40;3.50;;;11.40;99.90;;;;;;5000539;28;20029;-89
2022/07/08 03:06:19;;;;;;;6.50;2.63;;;11.50;99.90;;;;;;5015612;28;20025;-89
2022/07/08 03:08:45;;;;;;;9.38;2.38;;;11.50;99.90;;;;;;5030487;28;20029;-89
2022/07/08 03:11:11;;;;;;;7.28;2.88;;;11.50;99.90;;;;;;5003945;28;20052;-88
2022/07/08 03:13:37;;;;;;;6.35;2.85;;;11.50;99.90;;;;;;5016108;28;20042;-89
2022/07/08 03:16:03;;;;;;;8.73;2.83;;;11.50;99.90;;;;;;5009683;28;20498;-89
2022/07/08 03:18:31;;;;;;;9.02;2.92;;;11.50;99.90;;;;;;4999722;28;20382;-88
2022/07/08 03:20:57;;;;;;;9.23;3.13;;;11.50;99.90;;;;;;5004628;28;20026;-88
2022/07/08 03:23:22;;;;;;;10.40;2.67;;;11.50;99.90;;;;;;5001646;28;20057;-88
2022/07/08 03:25:48;;;;;;;7.18;2.75;;;11.50;99.90;;;;;;4994817;28;20593;-89
2022/07/08 03:28:14;;;;;;;9.13;2.75;;;11.50;99.90;;;;;;5011940;28;20505;-88
2022/07/08 03:30:40;;;;;;;6.93;2.20;;;11.60;99.90;;;;;;5000299;28;20037;-88
2022/07/08 03:33:06;;;;;;;5.28;1.98;;;11.60;99.90;;;;;;5024231;28;20541;-87
2022/07/08 03:35:31;;;;;;;7.88;2.50;;;11.60;99.90;;;;;;5013266;28;20030;-88
2022/07/08 03:37:57;;;;;;;9.30;2.35;;;11.60;99.90;;;;;;5016666;28;20025;-88
2022/07/08 03:43:07;;;;;;;7.53;2.15;;;11.70;99.90;;;;;;5012335;28;20764;-89
2022/07/08 03:45:32;;;;;;;4.40;2.00;;;11.80;99.90;;;;;;5004139;28;20105;-87
2022/07/08 03:48:00;;;;;;;6.47;2.28;;;11.80;99.90;;;;;;5027289;28;20104;-88
2022/07/08 03:50:26;;;;;;;4.85;1.70;;;11.80;99.90;;;;;;5007424;28;20034;-88
2022/07/08 03:52:52;;;;;;;7.63;2.20;;;11.90;99.90;;;;;;4995694;28;20034;-89
2022/07/08 03:55:21;;;;;;;4.00;2.40;;;11.90;99.90;;;;;;5019869;28;20071;-89
2022/07/08 03:57:47;;;;;;;4.93;2.05;;;11.90;99.90;;;;;;5022520;28;20022;-88
2022/07/08 04:00:14;;;;;;;12.07;2.60;;;12.00;99.90;;;;;;5004513;28;20027;-89
2022/07/08 04:02:39;;;;;;;5.00;2.22;;;11.90;99.90;;;;;;4993975;28;20038;-87
2022/07/08 04:05:05;;;;;;;10.75;2.30;;;12.00;99.90;;;;;;5018334;28;20029;-88
2022/07/08 04:07:32;;;;;;;10.45;2.42;;;12.00;99.90;;;;;;5015578;28;20034;-88
2022/07/08 04:09:58;;;;;;;8.75;1.90;;;12.00;99.90;;;;;;5010665;28;20036;-88
2022/07/08 04:12:23;;;;;;;8.90;2.20;;;12.00;99.90;;;;;;4983796;28;20034;-89
2022/07/08 04:14:49;;;;;;;5.70;2.00;;;12.10;99.90;;;;;;5025242;28;20018;-88
2022/07/08 04:17:15;;;;;;;5.85;1.90;;;12.10;99.90;;;;;;5015476;28;20030;-89
2022/07/08 04:19:41;;;;;;;8.05;2.10;;;12.10;99.90;;;;;;5017665;28;20023;-88
2022/07/08 04:22:06;;;;;;;11.55;2.70;;;12.10;99.90;;;;;;5013013;28;20525;-89
2022/07/08 04:24:32;;;;;;;6.00;2.28;;;12.20;99.90;;;;;;5006513;28;20548;-89
2022/07/08 04:26:58;;;;;;;6.32;2.53;;;12.20;99.90;;;;;;5010428;28;20033;-89
2022/07/08 04:29:24;;;;;;;13.05;2.47;;;12.20;99.90;;;;;;4978268;28;20068;-89
2022/07/08 04:31:49;;;;;;;3.75;1.80;;;12.30;99.90;;;;;;4991801;28;20089;-89
2022/07/08 04:34:15;;;;;;;5.63;2.28;;;12.30;99.90;;;;;;4997595;28;20031;-90
2022/07/08 04:36:41;;;;;;;7.18;1.90;;;12.40;99.90;;;;;;5002367;28;20032;-89
2022/07/08 04:39:06;;;;;;;12.00;2.08;;;12.40;99.90;;;;;;5023201;28;20113;-90
2022/07/08 04:41:32;;;;;;;8.65;2.42;;;12.40;99.90;;;;;;5009543;28;20097;-89
2022/07/08 04:43:58;;;;;;;5.57;2.03;;;12.40;99.90;;;;;;4976871;28;20394;-90
2022/07/08 04:46:23;;;;;;;8.18;1.92;;;12.50;99.90;;;;;;5003481;28;20524;-89
2022/07/08 04:48:49;;;;;;;7.45;2.08;;;12.50;99.90;;;;;;5020594;28;20508;-89
2022/07/08 04:51:15;;;;;;;8.10;1.98;;;12.50;99.90;;;;;;5025601;28;20462;-89
2022/07/08 04:53:40;;;;;;;9.35;2.30;;;12.50;99.90;;;;;;5001441;28;20030;-89
2022/07/08 04:56:06;;;;;;;8.95;2.10;;;12.60;99.90;;;;;;4994348;28;20030;-89
2022/07/08 04:58:35;;;;;;;6.63;1.73;;;12.60;99.90;;;;;;5017734;28;20033;-90
2022/07/08 05:01:00;;;;;;;5.75;1.90;;;12.70;99.90;;;;;;5023415;28;20037;-89
2022/07/08 05:03:26;;;;;;;6.53;1.70;;;12.80;99.90;;;;;;5008195;28;20026;-90
2022/07/08 05:05:52;;;;;;;6.43;2.35;;;12.90;99.90;;;;;;5005705;28;20026;-89
2022/07/08 05:08:17;;;;;;;5.95;2.22;;;12.90;99.90;;;;;;4981342;28;20038;-89
2022/07/08 05:10:43;;;;;;;7.47;1.40;;;13.00;99.90;;;;;;5000829;28;20089;-89
2022/07/08 05:13:09;;;;;;;9.23;2.03;;;13.10;99.90;;;;;;4997154;28;20034;-88
2022/07/08 05:15:35;;;;;;;4.43;1.50;;;13.20;99.90;;;;;;5007846;28;20394;-89
2022/07/08 05:18:00;;;;;;;4.25;1.60;;;13.40;99.90;;;;;;5016914;28;20032;-90
2022/07/08 05:20:26;;;;;;;6.47;2.05;;;13.50;99.90;;;;;;5003767;28;20030;-89
2022/07/08 05:22:52;;;;;;;6.78;2.67;;;13.60;99.90;;;;;;4992784;28;20027;-89
2022/07/08 05:25:17;;;;;;;5.30;1.52;;;13.70;99.90;;;;;;5011871;28;20084;-90
2022/07/08 05:27:43;;;;;;;6.93;1.90;;;13.80;99.90;;;;;;5016725;28;20123;-89
2022/07/08 05:30:10;;;;;;;5.45;1.80;;;13.90;99.90;;;;;;5023481;28;20065;-89
2022/07/08 05:32:37;;;;;;;6.50;1.60;;;14.00;99.90;;;;;;5023222;28;20038;-90
2022/07/08 05:35:04;;;;;;;7.60;1.73;;;14.10;99.90;;;;;;5027163;28;20648;-89
2022/07/08 05:37:31;;;;;;;7.90;2.08;;;14.20;99.90;;;;;;5014893;28;20034;-89
2022/07/08 05:39:57;;;;;;;10.98;1.80;;;14.40;99.90;;;;;;5008019;28;20029;-90
2022/07/08 05:42:23;;;;;;;5.10;2.10;;;14.50;99.90;;;;;;5027414;28;20501;-89
2022/07/08 05:44:49;;;;;;;7.13;1.48;;;14.50;99.90;;;;;;5011578;28;20029;-90
2022/07/08 05:47:15;;;;;;;5.07;1.38;;;14.50;99.90;;;;;;5019222;28;20034;-90
2022/07/08 05:49:43;;;;;;;8.68;1.63;;;14.60;99.90;;;;;;5009204;28;20383;-89
2022/07/08 05:52:10;;;;;;;7.13;2.15;;;14.50;99.90;;;;;;5019592;28;20034;-90
2022/07/08 05:54:36;;;;;;;5.10;1.30;;;14.50;99.90;;;;;;5022014;28;20053;-90
2022/07/08 05:57:02;;;;;;;7.50;1.63;;;14.50;99.90;;;;;;5004632;28;20068;-90
2022/07/08 05:59:29;;;;;;;5.78;1.55;;;14.50;99.90;;;;;;4996499;28;20722;-90
2022/07/08 06:01:55;;;;;;;3.45;1.35;;;14.50;99.90;;;;;;4994052;28;20026;-90
2022/07/08 06:04:21;;;;;;;5.68;1.30;;;14.50;99.90;;;;;;4999468;28;20023;-91
2022/07/08 06:06:46;;;;;;;6.97;1.52;;;14.50;99.90;;;;;;4991952;28;20034;-90
2022/07/08 06:09:12;;;;;;;3.20;1.33;;;14.60;99.90;;;;;;4988696;28;20018;-91
2022/07/08 06:11:38;;;;;;;3.67;1.38;;;14.60;99.90;;;;;;4983051;28;20081;-88
2022/07/08 06:14:04;;;;;;;5.32;1.60;;;14.70;99.90;;;;;;5008709;28;20936;-88
2022/07/08 06:16:30;;;;;;;6.50;1.95;;;14.70;99.90;;;;;;5010155;28;20422;-89
2022/07/08 06:18:56;;;;;;;5.43;1.40;;;14.60;99.90;;;;;;4993634;28;20041;-89
2022/07/08 06:21:21;;;;;;;5.70;1.63;;;14.50;99.90;;;;;;5000698;28;20049;-88
2022/07/08 06:23:47;;;;;;;6.88;1.67;;;14.50;99.90;;;;;;5008006;28;20042;-88
2022/07/08 06:26:13;;;;;;;5.85;1.55;;;14.40;99.90;;;;;;5015650;28;20494;-89
2022/07/08 06:28:39;;;;;;;6.25;2.25;;;14.40;99.90;;;;;;5019334;28;20029;-89
2022/07/08 06:31:04;;;;;;;3.65;1.52;;;14.50;99.90;;;;;;5024898;28;20393;-89
2022/07/08 06:33:31;;;;;;;6.43;2.15;;;14.50;99.90;;;;;;5014484;28;20753;-89
2022/07/08 06:35:57;;;;;;;5.93;1.75;;;14.40;99.90;;;;;;5014019;28;20109;-90
2022/07/08 06:38:22;;;;;;;6.40;1.45;;;14.50;99.90;;;;;;5016950;28;20033;-90
2022/07/08 06:40:48;;;;;;;5.30;1.63;;;14.50;99.90;;;;;;5022529;28;20048;-89
2022/07/08 06:43:14;;;;;;;5.55;1.55;;;14.60;99.90;;;;;;5020259;28;20481;-90
2022/07/08 06:45:40;;;;;;;5.45;1.60;;;14.60;99.90;;;;;;5004406;28;20042;-88
2022/07/08 06:48:07;;;;;;;4.05;1.40;;;14.70;99.90;;;;;;5030622;28;20112;-89
2022/07/08 06:50:32;;;;;;;4.05;1.42;;;14.70;99.90;;;;;;5004206;28;20030;-88
2022/07/08 06:52:58;;;;;;;9.75;1.88;;;14.70;99.90;;;;;;5025862;28;20581;-90
2022/07/08 06:55:24;;;;;;;4.03;1.60;;;14.80;99.90;;;;;;5014391;28;20049;-89
2022/07/08 06:57:49;;;;;;;8.77;2.90;;;14.70;99.90;;;;;;5035766;28;20030;-89
2022/07/08 07:00:16;;;;;;;5.90;1.65;;;14.70;99.90;;;;;;5013116;28;20029;-89
2022/07/08 07:02:42;;;;;;;4.20;1.70;;;14.60;99.90;;;;;;5007743;28;20026;-89
2022/07/08 07:05:08;;;;;;;6.13;1.73;;;14.70;99.90;;;;;;5016242;28;20489;-90
2022/07/08 07:07:34;;;;;;;6.82;1.80;;;14.80;99.90;;;;;;4996633;28;20525;-89
2022/07/08 07:10:01;;;;;;;6.35;1.95;;;14.80;99.90;;;;;;4986539;28;20038;-90
2022/07/08 07:12:27;;;;;;;7.50;1.90;;;14.90;99.90;;;;;;5002992;28;20148;-90
2022/07/08 07:14:52;;;;;;;5.53;1.50;;;14.90;99.90;;;;;;4988151;28;20109;-90
2022/07/08 07:17:20;;;;;;;6.10;2.25;;;14.90;99.90;;;;;;5014023;28;20030;-88
2022/07/08 07:19:47;;;;;;;6.47;1.83;;;15.00;99.90;;;;;;5009150;28;20038;-89
2022/07/08 07:22:14;;;;;;;8.98;1.95;;;15.00;99.90;;;;;;5010752;28;20040;-90
2022/07/08 07:24:40;;;;;;;9.55;1.90;;;15.00;99.90;;;;;;5024964;28;20045;-89
2022/07/08 07:27:06;;;;;;;7.80;2.30;;;15.10;99.90;;;;;;5031013;28;20129;-90
2022/07/08 07:29:31;;;;;;;8.75;2.65;;;15.10;99.90;;;;;;5004950;28;20571;-90
2022/07/08 07:31:57;;;;;;;12.75;2.42;;;15.10;99.90;;;;;;5004373;28;20380;-90
2022/07/08 07:34:23;;;;;;;7.55;2.17;;;15.20;99.90;;;;;;5003085;28;20053;-88
2022/07/08 07:36:48;;;;;;;6.07;1.92;;;15.30;99.90;;;;;;5024309;28;20064;-90
2022/07/08 07:39:14;;;;;;;4.20;1.90;;;15.30;99.90;;;;;;5009307;28;20026;-90
2022/07/08 07:41:40;;;;;;;5.80;2.22;;;15.40;99.90;;;;;;5003871;28;20053;-90
2022/07/08 07:44:05;;;;;;;7.05;1.90;;;15.30;99.90;;;;;;4995853;28;20080;-90
2022/07/08 07:46:32;;;;;;;10.98;2.47;;;15.20;99.90;;;;;;5011644;28;20113;-90
2022/07/08 07:48:58;;;;;;;9.30;2.38;;;15.20;99.90;;;;;;5011065;28;20105;-90
2022/07/08 07:51:24;;;;;;;11.68;2.30;;;15.20;99.90;;;;;;4989043;28;20030;-90
2022/07/08 07:53:50;;;;;;;8.93;2.20;;;15.10;99.90;;;;;;5016041;28;20048;-91
2022/07/08 07:56:15;;;;;;;8.43;2.30;;;15.10;99.90;;;;;;4998421;28;20498;-91
2022/07/08 07:58:41;;;;;;;6.25;2.00;;;15.10;99.90;;;;;;4991435;28;20035;-91
2022/07/08 08:01:07;;;;;;;5.07;1.60;;;15.10;99.90;;;;;;5006523;28;20030;-91
2022/07/08 08:03:33;;;;;;;7.05;2.20;;;15.10;99.90;;;;;;4995775;28;20624;-90
2022/07/08 08:05:59;;;;;;;8.52;2.42;;;15.10;99.90;;;;;;5025931;28;20024;-91
2022/07/08 08:08:26;;;;;;;11.60;2.13;;;15.10;99.90;;;;;;4998754;28;20057;-90
2022/07/08 08:10:52;;;;;;;6.97;1.90;;;15.10;99.90;;;;;;5012627;28;20132;-90
2022/07/08 08:13:18;;;;;;;7.18;2.00;;;15.20;99.90;;;;;;5017970;28;20048;-91
2022/07/08 08:15:45;;;;;;;5.63;1.58;;;15.20;99.90;;;;;;5027262;28;20022;-89
2022/07/08 08:18:10;;;;;;;8.80;2.35;;;15.20;99.90;;;;;;5012195;28;20025;-90
2022/07/08 08:20:36;;;;;;;5.40;1.80;;;15.30;99.90;;;;;;5011212;28;20030;-90
2022/07/08 08:23:03;;;;;;;8.40;2.10;;;15.30;99.90;;;;;;5018890;28;20034;-90
2022/07/08 08:25:28;;;;;;;7.05;1.90;;;15.30;99.90;;;;;;5031192;28;20073;-90
2022/07/08 08:27:54;;;;;;;6.60;2.25;;;15.40;99.90;;;;;;5023817;28;20057;-90
2022/07/08 08:30:20;;;;;;;16.50;2.13;;;15.40;99.90;;;;;;4992129;28;20484;-90
2022/07/08 08:32:46;;;;;;;7.28;1.60;;;15.50;99.90;;;;;;4978749;28;20056;-90
2022/07/08 08:35:12;;;;;;;5.95;2.30;;;15.60;99.90;;;;;;5021495;28;20026;-90
2022/07/08 08:37:38;;;;;;;8.55;1.90;;;15.70;99.90;;;;;;5021259;28;20547;-90
2022/07/08 08:40:13;;;;;;;5.93;1.90;;;15.90;99.90;;;;;;5006881;28;20033;-90
2022/07/08 08:42:40;;;;;;;7.38;2.42;;;16.00;99.90;;;;;;5024892;28;20745;-90
2022/07/08 08:45:07;;;;;;;12.85;2.33;;;16.10;99.90;;;;;;5022809;28;20057;-90
2022/07/08 08:47:34;;;;;;;7.32;2.45;;;16.20;99.90;;;;;;5014095;28;20041;-90
2022/07/08 08:52:49;;;;;;;8.25;1.98;;;16.40;99.90;;;;;;5014485;28;20056;-90
2022/07/08 08:55:26;;;;;;;6.10;2.22;;;16.50;99.90;;;;;;5022262;28;20022;-89
2022/07/08 08:58:00;;;;;;;12.48;1.90;;;16.50;99.90;;;;;;5004921;28;20025;-90
2022/07/08 09:00:27;;;;;;;5.40;2.55;;;16.50;99.90;;;;;;4995264;28;20482;-90
2022/07/08 09:02:54;;;;;;;3.97;1.95;;;16.60;99.90;;;;;;5016551;28;20026;-90
2022/07/08 09:05:21;;;;;;;7.85;1.95;;;16.50;99.90;;;;;;5004279;28;20441;-90
2022/07/08 09:07:47;;;;;;;5.13;2.05;;;16.50;99.90;;;;;;4983208;28;20034;-90
2022/07/08 09:10:16;;;;;;;4.95;1.98;;;16.50;99.90;;;;;;5010137;28;20425;-90
2022/07/08 09:13:23;;;;;;;7.30;2.47;;;16.60;99.90;;;;;;5000456;28;20030;-89
2022/07/08 09:15:50;;;;;;;7.03;1.77;;;16.60;99.90;;;;;;4940413;28;20445;-88
2022/07/08 09:18:20;;;;;;;10.10;3.00;;;16.70;99.90;;;;;;4954547;29;20031;-90
2022/07/08 09:20:53;;;;;;;10.75;2.25;;;16.80;99.90;;;;;;4974245;28;20034;-90
2022/07/08 09:23:28;;;;;;;8.52;1.90;;;17.00;99.90;;;;;;4998873;28;20509;-91
2022/07/08 09:25:56;;;;;;;3.15;1.73;;;17.20;99.90;;;;;;5007972;28;20061;-91
2022/07/08 09:28:31;;;;;;;6.25;1.95;;;17.50;99.90;;;;;;4987000;28;20034;-91
2022/07/08 09:30:58;;;;;;;6.30;1.35;;;17.90;99.90;;;;;;5017753;28;20101;-90
2022/07/08 09:33:28;;;;;;;4.47;1.50;;;18.50;99.90;;;;;;5012418;28;20030;-88
2022/07/08 09:35:55;;;;;;;9.00;2.13;;;19.10;99.90;;;;;;5013440;28;20072;-91
2022/07/08 09:38:22;;;;;;;6.35;1.67;;;19.70;99.90;;;;;;4988591;28;20030;-91
2022/07/08 09:40:58;;;;;;;8.20;2.10;;;20.10;99.90;;;;;;4991859;28;20026;-90
2022/07/08 09:43:26;;;;;;;7.53;2.78;;;20.20;99.90;;;;;;5013113;28;20030;-91
2022/07/08 09:45:52;;;;;;;5.32;1.50;;;20.30;99.90;;;;;;5010471;28;20029;-91
2022/07/08 09:48:18;;;;;;;6.70;2.28;;;20.20;99.90;;;;;;5016615;28;20033;-91
2022/07/08 09:50:46;;;;;;;5.35;1.45;;;20.00;99.90;;;;;;4988115;28;20030;-90
2022/07/08 09:53:18;;;;;;;6.25;1.70;;;19.80;99.90;;;;;;4988063;28;20101;-90
2022/07/08 09:55:51;;;;;;;4.15;1.50;;;19.70;99.90;;;;;;5020136;28;20022;-90
2022/07/08 09:58:19;;;;;;;3.63;1.60;;;19.50;99.90;;;;;;5020462;28;20029;-91
2022/07/08 10:00:46;;;;;;;4.90;1.38;;;19.60;99.90;;;;;;5005872;28;20033;-90
2022/07/08 10:03:12;;;;;;;4.70;1.65;;;19.70;99.90;;;;;;4998921;28;20645;-90
2022/07/08 10:05:38;;;;;;;5.57;1.73;;;19.90;99.90;;;;;;4999128;28;20457;-90
2022/07/08 10:08:05;;;;;;;4.15;1.73;;;20.00;99.90;;;;;;5025874;28;20033;-89
2022/07/08 10:10:32;;;;;;;2.53;1.40;;;20.10;99.90;;;;;;5022133;28;20080;-90
2022/07/08 10:12:59;;;;;;;14.35;1.65;;;20.00;99.90;;;;;;5010373;28;20034;-90
2022/07/08 10:15:26;;;;;;;5.70;1.67;;;20.30;99.90;;;;;;5018227;28;20376;-91
2022/07/08 10:17:52;;;;;;;2.95;1.40;;;20.60;99.90;;;;;;4999895;28;20164;-91
2022/07/08 10:20:21;;;;;;;4.20;1.30;;;20.70;99.90;;;;;;5009794;28;20042;-91
2022/07/08 10:22:51;;;;;;;4.10;1.25;;;21.20;99.90;;;;;;5009752;28;20037;-90
2022/07/08 10:25:20;;;;;;;6.50;1.75;;;21.40;99.90;;;;;;5009767;28;20042;-91
2022/07/08 10:27:47;;;;;;;4.78;1.45;;;21.70;99.90;;;;;;5001660;28;20026;-91
2022/07/08 10:30:17;;;;;;;4.50;1.35;;;21.20;97.10;;;;;;4998313;28;20026;-91
2022/07/08 10:32:47;;;;;;;6.70;1.40;;;21.00;99.90;;;;;;5020960;28;20490;-90
2022/07/08 10:35:17;;;;;;;3.00;1.40;;;20.90;99.60;;;;;;4998468;28;20030;-89
2022/07/08 10:37:47;;;;;;;4.75;1.92;;;20.80;99.90;;;;;;4998923;28;20114;-90
2022/07/08 10:40:33;;;;;;;3.80;1.50;;;20.80;99.90;;;;;;5011551;28;20058;-89
2022/07/08 10:43:21;;;;;;;6.45;1.80;;;20.80;99.90;;;;;;5012841;28;20541;-90
2022/07/08 10:46:01;;;;;;;5.25;1.40;;;20.80;99.90;;;;;;4998126;28;20018;-91
2022/07/08 10:48:45;;;;;;;5.07;2.03;;;20.50;99.90;;;;;;4983635;28;20454;-91
2022/07/08 10:51:20;;;;;;;5.55;1.58;;;20.40;99.90;;;;;;5021373;28;20469;-90
2022/07/08 10:53:55;;;;;;;6.22;1.95;;;20.40;99.90;;;;;;4988768;28;20442;-90
2022/07/08 10:56:48;;;;;;;3.85;1.55;;;20.30;99.90;;;;;;4999763;28;20026;-91
2022/07/08 10:59:22;;;;;;;4.53;1.58;;;20.20;99.90;;;;;;5008914;28;20513;-91
2022/07/08 11:01:52;;;;;;;10.95;1.98;;;19.70;99.90;;;;;;5018650;28;20931;-90
2022/07/08 11:04:24;;;;;;;3.15;1.38;;;19.60;99.90;;;;;;5027696;28;20117;-89
2022/07/08 11:06:50;;;;;;;6.55;1.50;;;19.50;99.90;;;;;;5002903;28;20376;-90
2022/07/08 11:09:19;;;;;;;4.88;1.92;;;19.60;99.90;;;;;;5005864;28;20079;-91
2022/07/08 11:11:45;;;;;;;4.13;1.50;;;19.70;99.90;;;;;;5002561;28;20031;-91
2022/07/08 11:14:13;;;;;;;7.22;1.15;;;19.90;99.90;;;;;;4995647;28;20038;-91
2022/07/08 11:16:38;;;;;;;4.78;1.65;;;20.30;99.90;;;;;;4992222;28;20037;-90
2022/07/08 11:19:08;;;;;;;6.70;1.20;;;20.50;99.90;;;;;;5012743;28;20022;-91
2022/07/08 11:21:34;;;;;;;2.95;1.08;;;20.90;99.90;;;;;;5014364;28;20097;-92
2022/07/08 11:24:00;;;;;;;3.47;1.38;;;21.10;99.90;;;;;;5030997;28;20517;-90
2022/07/08 11:26:25;;;;;;;7.05;1.38;;;21.10;99.90;;;;;;4992252;28;20118;-90
2022/07/08 11:28:51;;;;;;;5.38;1.25;;;21.20;99.90;;;;;;5002108;28;20109;-90
2022/07/08 11:31:26;;;;;;;2.60;0.93;;;21.00;96.80;;;;;;4999230;28;20441;-91
2022/07/08 11:33:52;;;;;;;3.95;1.23;;;20.90;98.90;;;;;;5002983;28;20083;-91
2022/07/08 11:36:22;;;;;;;5.38;1.33;;;20.80;99.40;;;;;;5001387;28;20033;-90
2022/07/08 11:38:49;;;;;;;8.23;1.40;;;20.70;98.70;;;;;;5039584;28;20044;-91
2022/07/08 11:41:17;;;;;;;5.50;1.08;;;20.80;99.90;;;;;;5030292;28;20041;-91
2022/07/08 11:43:43;;;;;;;4.75;1.30;;;20.90;99.90;;;;;;5023574;28;20030;-91
2022/07/08 11:46:17;;;;;;;2.03;1.27;;;21.20;95.90;;;;;;5012381;28;20037;-90
2022/07/08 11:48:43;;;;;;;3.97;1.10;;;21.70;93.90;;;;;;5030948;28;21056;-90
2022/07/08 11:51:11;;;;;;;2.88;0.93;;;22.40;92.80;;;;;;5012689;28;20060;-91
2022/07/08 11:53:37;;;;;;;3.65;0.90;;;22.60;87.60;;;;;;5015768;28;20030;-91
2022/07/08 11:56:03;;;;;;;1.73;0.82;;;22.80;83.30;;;;;;5013459;28;20028;-91
2022/07/08 11:58:28;;;;;;;2.88;0.98;;;22.90;82.80;;;;;;5028235;28;20500;-91
2022/07/08 12:00:55;;;;;;;2.50;0.90;;;23.00;80.90;;;;;;5021068;28;20523;-91
2022/07/08 12:03:21;;;;;;;3.35;0.90;;;22.90;84.30;;;;;;5009820;28;20747;-92
2022/07/08 12:05:47;;;;;;;2.25;0.60;;;23.10;80.70;;;;;;5023472;28;20036;-90
2022/07/08 12:08:13;;;;;;;4.40;1.10;;;23.40;79.40;;;;;;5008086;28;20037;-91
2022/07/08 12:10:39;;;;;;;4.13;1.10;;;23.50;77.30;;;;;;4994197;28;20029;-89
2022/07/08 12:13:05;;;;;;;3.45;1.10;;;23.60;70.80;;;;;;5025300;28;20599;-90
2022/07/08 12:15:35;;;;;;;2.63;1.00;;;23.40;71.40;;;;;;5024964;28;20544;-91
2022/07/08 12:18:01;;;;;;;2.83;0.80;;;23.50;73.50;;;;;;5028000;28;20041;-90
2022/07/08 12:20:53;;;;;;;2.85;1.02;;;23.60;73.30;;;;;;5026552;28;20120;-90
2022/07/08 12:23:19;;;;;;;1.35;0.80;;;23.60;72.20;;;;;;5008462;28;20041;-91
2022/07/08 12:25:49;;;;;;;4.50;1.17;;;23.50;73.30;;;;;;5026344;28;20030;-90
2022/07/08 12:28:23;;;;;;;5.00;0.93;;;23.40;71.70;;;;;;5012075;28;20030;-91
2022/07/08 12:30:49;;;;;;;3.53;1.08;;;23.30;75.70;;;;;;5029948;28;20026;-91
2022/07/08 12:33:25;;;;;;;3.33;1.17;;;23.30;74.00;;;;;;5017801;28;20032;-90
2022/07/08 12:35:52;;;;;;;5.32;1.30;;;23.50;73.30;;;;;;5028194;28;20428;-90
2022/07/08 12:38:23;;;;;;;4.07;1.38;;;23.70;72.90;;;;;;5015394;28;20053;-90
2022/07/08 12:40:49;;;;;;;2.97;1.00;;;23.70;71.60;;;;;;5013072;28;20482;-90
2022/07/08 12:43:15;;;;;;;1.92;0.88;;;23.50;71.90;;;;;;5018572;28;20046;-89
2022/07/08 12:45:41;;;;;;;4.68;1.67;;;23.40;74.10;;;;;;5020897;28;20381;-90
2022/07/08 12:48:07;;;;;;;5.55;1.10;;;23.50;74.70;;;;;;5029939;28;20033;-89
2022/07/08 12:50:34;;;;;;;7.55;1.38;;;23.60;72.70;;;;;;5029308;28;20033;-90